Главная страница
METAR-TAF:

METAR-TAF

Аэропорты :

Эстерсунд-Frösön, Швеция

широта: 63-11N, долгота: 014-30E, высота над уровнем моря: 376 м

Текущие метеонаблюдения

Эта сводка был подготовлена 11 минут назад, в 15:20 UTC
Ветер 9 Узел от южный
Температура 20°C
Влажность 46%
Давление 1009 hPa
Видимость 10 км и более

METAR: ESNZ 221520Z AUTO 17009KT 9999 OVC084/// 20/08 Q1009

Время: 17:31 (15:31 UTC)

Прогноз

Эта сводка был подготовлена 1 час и 1 минут назад, в 14:30 UTC
Прогноз действительный с 22-го 15 UTC до 22-го 19 UTC
Ветер 8 Узел от юго-восточный
Видимость 10 км и более
Нет облачности ниже 1500 м, и нет кучево-дождевой облачности

TAF: ESNZ 221430Z 2215/2219 13008KT CAVOK

Метеонаблюдения и прогнозы для более 4000 аэропортов (сводки METAR и TAF).

Имеющиеся станции представлены на карте желтыми и красными точками.

Чтобы увидеть название станции, наведите на нее мышь.

Затем щелкните, чтобы увидеть метеонаблюдения и метеопрогнозы.

Управление картой: чтобы увеличить масштаб, щелкните зеленые кнопки с черным крестиком; чтобы уменьшить масштаб, щелкните зеленую кнопку с тире; для просмотра соседних карт щелкайте зеленые стрелки.


METAR-TAF: